sensor_id;sensor_type;location;lat;lon;timestamp;P1;durP1;ratioP1;P2;durP2;ratioP2
21206;SDS011;10761;48.532;8.026;2022-11-25T00:00:51;11.60;;;3.30;;
21206;SDS011;10761;48.532;8.026;2022-11-25T00:03:17;10.40;;;3.60;;
21206;SDS011;10761;48.532;8.026;2022-11-25T00:05:43;12.27;;;3.30;;
21206;SDS011;10761;48.532;8.026;2022-11-25T00:08:08;11.02;;;3.47;;
21206;SDS011;10761;48.532;8.026;2022-11-25T00:10:34;15.48;;;4.05;;
21206;SDS011;10761;48.532;8.026;2022-11-25T00:13:00;6.13;;;3.22;;
21206;SDS011;10761;48.532;8.026;2022-11-25T00:15:25;9.75;;;3.63;;
21206;SDS011;10761;48.532;8.026;2022-11-25T00:17:51;8.98;;;3.30;;
21206;SDS011;10761;48.532;8.026;2022-11-25T00:20:17;15.10;;;3.85;;
21206;SDS011;10761;48.532;8.026;2022-11-25T00:22:46;13.52;;;2.92;;
21206;SDS011;10761;48.532;8.026;2022-11-25T00:25:12;9.38;;;2.33;;
21206;SDS011;10761;48.532;8.026;2022-11-25T00:27:38;8.13;;;2.47;;
21206;SDS011;10761;48.532;8.026;2022-11-25T00:30:04;12.48;;;2.88;;
21206;SDS011;10761;48.532;8.026;2022-11-25T00:32:30;8.30;;;3.53;;
21206;SDS011;10761;48.532;8.026;2022-11-25T00:34:55;8.80;;;2.40;;
21206;SDS011;10761;48.532;8.026;2022-11-25T00:37:21;9.65;;;2.20;;
21206;SDS011;10761;48.532;8.026;2022-11-25T00:39:46;7.60;;;1.80;;
21206;SDS011;10761;48.532;8.026;2022-11-25T00:42:12;9.00;;;2.05;;
21206;SDS011;10761;48.532;8.026;2022-11-25T00:44:56;7.97;;;1.83;;
21206;SDS011;10761;48.532;8.026;2022-11-25T00:47:22;12.23;;;2.17;;
21206;SDS011;10761;48.532;8.026;2022-11-25T00:49:49;9.20;;;2.30;;
21206;SDS011;10761;48.532;8.026;2022-11-25T00:52:18;6.90;;;2.40;;
21206;SDS011;10761;48.532;8.026;2022-11-25T00:54:45;7.30;;;2.25;;
21206;SDS011;10761;48.532;8.026;2022-11-25T00:57:12;9.48;;;2.17;;
21206;SDS011;10761;48.532;8.026;2022-11-25T00:59:40;8.98;;;2.30;;
21206;SDS011;10761;48.532;8.026;2022-11-25T01:02:06;6.55;;;1.88;;
21206;SDS011;10761;48.532;8.026;2022-11-25T01:04:32;12.05;;;2.10;;
21206;SDS011;10761;48.532;8.026;2022-11-25T01:06:57;12.60;;;2.47;;
21206;SDS011;10761;48.532;8.026;2022-11-25T01:09:24;7.10;;;1.77;;
21206;SDS011;10761;48.532;8.026;2022-11-25T01:11:51;8.27;;;2.10;;
21206;SDS011;10761;48.532;8.026;2022-11-25T01:14:17;6.70;;;1.80;;
21206;SDS011;10761;48.532;8.026;2022-11-25T01:16:44;11.82;;;2.50;;
21206;SDS011;10761;48.532;8.026;2022-11-25T01:19:10;9.25;;;2.00;;
21206;SDS011;10761;48.532;8.026;2022-11-25T01:21:36;3.80;;;1.80;;
21206;SDS011;10761;48.532;8.026;2022-11-25T01:24:03;7.88;;;2.88;;
21206;SDS011;10761;48.532;8.026;2022-11-25T01:26:30;9.18;;;2.40;;
21206;SDS011;10761;48.532;8.026;2022-11-25T01:28:57;9.35;;;2.03;;
21206;SDS011;10761;48.532;8.026;2022-11-25T01:31:25;9.00;;;2.05;;
21206;SDS011;10761;48.532;8.026;2022-11-25T01:33:59;10.38;;;2.28;;
21206;SDS011;10761;48.532;8.026;2022-11-25T01:36:26;8.85;;;2.17;;
21206;SDS011;10761;48.532;8.026;2022-11-25T01:38:54;7.13;;;1.85;;
21206;SDS011;10761;48.532;8.026;2022-11-25T01:41:21;6.40;;;1.85;;
21206;SDS011;10761;48.532;8.026;2022-11-25T01:44:05;8.82;;;2.03;;
21206;SDS011;10761;48.532;8.026;2022-11-25T01:46:46;10.60;;;1.80;;
21206;SDS011;10761;48.532;8.026;2022-11-25T01:49:35;7.25;;;1.50;;
21206;SDS011;10761;48.532;8.026;2022-11-25T01:57:36;7.82;;;1.50;;
21206;SDS011;10761;48.532;8.026;2022-11-25T02:00:12;6.03;;;1.20;;
21206;SDS011;10761;48.532;8.026;2022-11-25T02:02:39;6.43;;;1.33;;
21206;SDS011;10761;48.532;8.026;2022-11-25T02:05:08;7.00;;;1.33;;
21206;SDS011;10761;48.532;8.026;2022-11-25T02:07:37;7.95;;;1.75;;
21206;SDS011;10761;48.532;8.026;2022-11-25T02:10:07;6.03;;;1.17;;
21206;SDS011;10761;48.532;8.026;2022-11-25T02:12:37;5.13;;;1.20;;
21206;SDS011;10761;48.532;8.026;2022-11-25T02:15:05;3.20;;;1.02;;
21206;SDS011;10761;48.532;8.026;2022-11-25T02:17:31;7.43;;;1.40;;
21206;SDS011;10761;48.532;8.026;2022-11-25T02:19:59;5.47;;;1.02;;
21206;SDS011;10761;48.532;8.026;2022-11-25T02:25:29;7.20;;;1.23;;
21206;SDS011;10761;48.532;8.026;2022-11-25T02:28:02;8.35;;;1.20;;
21206;SDS011;10761;48.532;8.026;2022-11-25T02:30:30;5.13;;;1.10;;
21206;SDS011;10761;48.532;8.026;2022-11-25T02:32:57;7.10;;;1.60;;
21206;SDS011;10761;48.532;8.026;2022-11-25T02:37:49;4.22;;;0.85;;
21206;SDS011;10761;48.532;8.026;2022-11-25T02:40:15;4.97;;;1.02;;
21206;SDS011;10761;48.532;8.026;2022-11-25T02:42:42;12.02;;;1.40;;
21206;SDS011;10761;48.532;8.026;2022-11-25T02:45:10;6.88;;;1.20;;
21206;SDS011;10761;48.532;8.026;2022-11-25T02:47:37;6.10;;;1.67;;
21206;SDS011;10761;48.532;8.026;2022-11-25T02:50:03;8.27;;;1.70;;
21206;SDS011;10761;48.532;8.026;2022-11-25T02:52:29;6.47;;;1.77;;
21206;SDS011;10761;48.532;8.026;2022-11-25T02:54:55;6.68;;;1.50;;
21206;SDS011;10761;48.532;8.026;2022-11-25T02:57:20;6.85;;;1.45;;
21206;SDS011;10761;48.532;8.026;2022-11-25T02:59:46;10.38;;;1.85;;
21206;SDS011;10761;48.532;8.026;2022-11-25T03:02:12;9.52;;;2.00;;
21206;SDS011;10761;48.532;8.026;2022-11-25T03:04:38;10.07;;;1.60;;
21206;SDS011;10761;48.532;8.026;2022-11-25T03:07:04;6.75;;;1.35;;
21206;SDS011;10761;48.532;8.026;2022-11-25T03:09:29;11.30;;;1.48;;
21206;SDS011;10761;48.532;8.026;2022-11-25T03:11:55;13.38;;;1.63;;
21206;SDS011;10761;48.532;8.026;2022-11-25T03:14:39;6.28;;;1.50;;
21206;SDS011;10761;48.532;8.026;2022-11-25T03:17:04;5.60;;;1.48;;
21206;SDS011;10761;48.532;8.026;2022-11-25T03:19:30;4.00;;;1.20;;
21206;SDS011;10761;48.532;8.026;2022-11-25T03:21:56;8.77;;;1.42;;
21206;SDS011;10761;48.532;8.026;2022-11-25T03:24:21;5.13;;;1.40;;
21206;SDS011;10761;48.532;8.026;2022-11-25T03:26:47;6.20;;;1.50;;
21206;SDS011;10761;48.532;8.026;2022-11-25T03:29:12;8.90;;;1.50;;
21206;SDS011;10761;48.532;8.026;2022-11-25T03:31:38;6.90;;;1.48;;
21206;SDS011;10761;48.532;8.026;2022-11-25T03:34:04;6.80;;;1.20;;
21206;SDS011;10761;48.532;8.026;2022-11-25T03:36:30;5.97;;;1.40;;
21206;SDS011;10761;48.532;8.026;2022-11-25T03:38:55;4.95;;;1.27;;
21206;SDS011;10761;48.532;8.026;2022-11-25T03:41:21;10.73;;;1.30;;
21206;SDS011;10761;48.532;8.026;2022-11-25T03:43:47;7.85;;;1.55;;
21206;SDS011;10761;48.532;8.026;2022-11-25T03:46:13;10.68;;;1.10;;
21206;SDS011;10761;48.532;8.026;2022-11-25T03:48:38;11.70;;;1.88;;
21206;SDS011;10761;48.532;8.026;2022-11-25T03:51:04;5.35;;;1.20;;
21206;SDS011;10761;48.532;8.026;2022-11-25T03:53:30;2.85;;;0.93;;
21206;SDS011;10761;48.532;8.026;2022-11-25T03:55:55;6.75;;;1.20;;
21206;SDS011;10761;48.532;8.026;2022-11-25T03:58:21;4.78;;;1.20;;
21206;SDS011;10761;48.532;8.026;2022-11-25T04:00:46;7.35;;;1.35;;
21206;SDS011;10761;48.532;8.026;2022-11-25T04:03:12;11.18;;;1.30;;
21206;SDS011;10761;48.532;8.026;2022-11-25T04:05:38;4.53;;;1.38;;
21206;SDS011;10761;48.532;8.026;2022-11-25T04:08:03;6.72;;;1.15;;
21206;SDS011;10761;48.532;8.026;2022-11-25T04:10:29;7.43;;;1.40;;
21206;SDS011;10761;48.532;8.026;2022-11-25T04:12:55;5.18;;;1.38;;
21206;SDS011;10761;48.532;8.026;2022-11-25T04:15:20;4.43;;;1.30;;
21206;SDS011;10761;48.532;8.026;2022-11-25T04:17:46;3.38;;;1.02;;
21206;SDS011;10761;48.532;8.026;2022-11-25T04:20:12;5.10;;;1.10;;
21206;SDS011;10761;48.532;8.026;2022-11-25T04:22:38;5.22;;;1.10;;
21206;SDS011;10761;48.532;8.026;2022-11-25T04:25:04;7.43;;;2.53;;
21206;SDS011;10761;48.532;8.026;2022-11-25T04:27:30;5.70;;;1.20;;
21206;SDS011;10761;48.532;8.026;2022-11-25T04:29:56;7.82;;;0.98;;
21206;SDS011;10761;48.532;8.026;2022-11-25T04:32:22;6.65;;;1.17;;
21206;SDS011;10761;48.532;8.026;2022-11-25T04:34:48;3.60;;;0.95;;
21206;SDS011;10761;48.532;8.026;2022-11-25T04:37:13;3.58;;;0.88;;
21206;SDS011;10761;48.532;8.026;2022-11-25T04:39:39;5.00;;;0.95;;
21206;SDS011;10761;48.532;8.026;2022-11-25T04:42:05;3.45;;;0.75;;
21206;SDS011;10761;48.532;8.026;2022-11-25T04:44:49;3.05;;;1.10;;
21206;SDS011;10761;48.532;8.026;2022-11-25T04:47:14;3.65;;;0.80;;
21206;SDS011;10761;48.532;8.026;2022-11-25T04:49:40;2.05;;;0.80;;
21206;SDS011;10761;48.532;8.026;2022-11-25T04:52:05;6.93;;;1.10;;
21206;SDS011;10761;48.532;8.026;2022-11-25T04:54:31;3.70;;;1.00;;
21206;SDS011;10761;48.532;8.026;2022-11-25T04:56:57;4.10;;;1.10;;
21206;SDS011;10761;48.532;8.026;2022-11-25T04:59:22;3.15;;;0.98;;
21206;SDS011;10761;48.532;8.026;2022-11-25T05:02:13;3.63;;;1.17;;
21206;SDS011;10761;48.532;8.026;2022-11-25T05:04:49;3.67;;;0.98;;
21206;SDS011;10761;48.532;8.026;2022-11-25T05:07:18;3.10;;;0.98;;
21206;SDS011;10761;48.532;8.026;2022-11-25T05:09:45;5.05;;;1.23;;
21206;SDS011;10761;48.532;8.026;2022-11-25T05:12:12;6.85;;;1.10;;
21206;SDS011;10761;48.532;8.026;2022-11-25T05:14:40;5.22;;;0.90;;
21206;SDS011;10761;48.532;8.026;2022-11-25T05:17:06;7.53;;;1.10;;
21206;SDS011;10761;48.532;8.026;2022-11-25T05:19:32;3.88;;;1.00;;
21206;SDS011;10761;48.532;8.026;2022-11-25T05:22:00;4.70;;;1.02;;
21206;SDS011;10761;48.532;8.026;2022-11-25T05:24:26;5.22;;;1.02;;
21206;SDS011;10761;48.532;8.026;2022-11-25T05:26:51;4.85;;;1.00;;
21206;SDS011;10761;48.532;8.026;2022-11-25T05:29:17;6.18;;;1.10;;
21206;SDS011;10761;48.532;8.026;2022-11-25T05:31:43;4.93;;;1.08;;
21206;SDS011;10761;48.532;8.026;2022-11-25T05:34:08;5.60;;;1.05;;
21206;SDS011;10761;48.532;8.026;2022-11-25T05:36:34;5.55;;;1.15;;
21206;SDS011;10761;48.532;8.026;2022-11-25T05:38:59;7.13;;;1.60;;
21206;SDS011;10761;48.532;8.026;2022-11-25T05:41:25;3.78;;;1.10;;
21206;SDS011;10761;48.532;8.026;2022-11-25T05:43:51;5.78;;;1.55;;
21206;SDS011;10761;48.532;8.026;2022-11-25T05:46:17;5.00;;;1.48;;
21206;SDS011;10761;48.532;8.026;2022-11-25T05:48:43;8.30;;;1.90;;
21206;SDS011;10761;48.532;8.026;2022-11-25T05:51:08;7.72;;;1.30;;
21206;SDS011;10761;48.532;8.026;2022-11-25T05:53:34;5.60;;;1.52;;
21206;SDS011;10761;48.532;8.026;2022-11-25T05:56:01;6.22;;;2.15;;
21206;SDS011;10761;48.532;8.026;2022-11-25T05:58:28;12.35;;;5.63;;
21206;SDS011;10761;48.532;8.026;2022-11-25T06:00:55;11.63;;;4.80;;
21206;SDS011;10761;48.532;8.026;2022-11-25T06:03:25;10.18;;;5.20;;
21206;SDS011;10761;48.532;8.026;2022-11-25T06:05:54;4.20;;;1.50;;
21206;SDS011;10761;48.532;8.026;2022-11-25T06:08:21;3.85;;;1.42;;
21206;SDS011;10761;48.532;8.026;2022-11-25T06:10:46;7.45;;;1.60;;
21206;SDS011;10761;48.532;8.026;2022-11-25T06:13:12;5.05;;;2.70;;
21206;SDS011;10761;48.532;8.026;2022-11-25T06:15:41;4.43;;;1.85;;
21206;SDS011;10761;48.532;8.026;2022-11-25T06:18:08;4.72;;;1.70;;
21206;SDS011;10761;48.532;8.026;2022-11-25T06:20:35;5.38;;;1.85;;
21206;SDS011;10761;48.532;8.026;2022-11-25T06:23:00;2.78;;;1.30;;
21206;SDS011;10761;48.532;8.026;2022-11-25T06:25:26;6.00;;;1.92;;
21206;SDS011;10761;48.532;8.026;2022-11-25T06:27:52;5.55;;;1.70;;
21206;SDS011;10761;48.532;8.026;2022-11-25T06:30:18;3.20;;;1.73;;
21206;SDS011;10761;48.532;8.026;2022-11-25T06:32:44;4.03;;;2.03;;
21206;SDS011;10761;48.532;8.026;2022-11-25T06:35:10;3.03;;;1.75;;
21206;SDS011;10761;48.532;8.026;2022-11-25T06:37:36;4.30;;;2.80;;
21206;SDS011;10761;48.532;8.026;2022-11-25T06:40:02;8.77;;;2.92;;
21206;SDS011;10761;48.532;8.026;2022-11-25T06:42:28;4.97;;;3.13;;
21206;SDS011;10761;48.532;8.026;2022-11-25T06:44:54;8.48;;;5.90;;
21206;SDS011;10761;48.532;8.026;2022-11-25T06:47:19;5.53;;;3.20;;
21206;SDS011;10761;48.532;8.026;2022-11-25T06:49:45;6.13;;;2.70;;
21206;SDS011;10761;48.532;8.026;2022-11-25T06:52:10;5.95;;;2.10;;
21206;SDS011;10761;48.532;8.026;2022-11-25T06:54:36;7.40;;;3.30;;
21206;SDS011;10761;48.532;8.026;2022-11-25T06:57:05;4.00;;;2.35;;
21206;SDS011;10761;48.532;8.026;2022-11-25T06:59:35;5.72;;;2.22;;
21206;SDS011;10761;48.532;8.026;2022-11-25T07:02:01;7.57;;;2.53;;
21206;SDS011;10761;48.532;8.026;2022-11-25T07:04:28;9.82;;;4.65;;
21206;SDS011;10761;48.532;8.026;2022-11-25T07:06:54;16.83;;;7.20;;
21206;SDS011;10761;48.532;8.026;2022-11-25T07:09:19;13.00;;;7.00;;
21206;SDS011;10761;48.532;8.026;2022-11-25T07:11:46;14.10;;;6.70;;
21206;SDS011;10761;48.532;8.026;2022-11-25T07:14:13;16.23;;;6.95;;
21206;SDS011;10761;48.532;8.026;2022-11-25T07:16:40;12.07;;;4.95;;
21206;SDS011;10761;48.532;8.026;2022-11-25T07:19:07;12.55;;;5.28;;
21206;SDS011;10761;48.532;8.026;2022-11-25T07:21:34;14.07;;;6.30;;
21206;SDS011;10761;48.532;8.026;2022-11-25T07:24:01;19.83;;;11.73;;
21206;SDS011;10761;48.532;8.026;2022-11-25T07:26:29;13.70;;;8.48;;
21206;SDS011;10761;48.532;8.026;2022-11-25T07:28:58;14.75;;;7.47;;
21206;SDS011;10761;48.532;8.026;2022-11-25T07:31:26;29.40;;;18.20;;
21206;SDS011;10761;48.532;8.026;2022-11-25T07:34:12;17.70;;;10.43;;
21206;SDS011;10761;48.532;8.026;2022-11-25T07:36:41;13.63;;;6.45;;
21206;SDS011;10761;48.532;8.026;2022-11-25T07:39:10;13.50;;;5.10;;
21206;SDS011;10761;48.532;8.026;2022-11-25T07:41:37;10.35;;;5.47;;
21206;SDS011;10761;48.532;8.026;2022-11-25T07:44:04;7.97;;;4.35;;
21206;SDS011;10761;48.532;8.026;2022-11-25T07:46:33;8.43;;;4.90;;
21206;SDS011;10761;48.532;8.026;2022-11-25T07:49:05;8.18;;;4.38;;
21206;SDS011;10761;48.532;8.026;2022-11-25T07:51:36;8.55;;;3.42;;
21206;SDS011;10761;48.532;8.026;2022-11-25T07:54:12;8.98;;;3.55;;
21206;SDS011;10761;48.532;8.026;2022-11-25T07:56:39;9.40;;;4.50;;
21206;SDS011;10761;48.532;8.026;2022-11-25T07:59:06;11.05;;;5.35;;
21206;SDS011;10761;48.532;8.026;2022-11-25T08:01:33;12.15;;;5.15;;
21206;SDS011;10761;48.532;8.026;2022-11-25T08:03:59;10.85;;;5.50;;
21206;SDS011;10761;48.532;8.026;2022-11-25T08:06:26;12.50;;;6.60;;
21206;SDS011;10761;48.532;8.026;2022-11-25T08:08:54;12.27;;;6.65;;
21206;SDS011;10761;48.532;8.026;2022-11-25T08:11:21;14.35;;;7.50;;
21206;SDS011;10761;48.532;8.026;2022-11-25T08:13:48;10.73;;;4.13;;
21206;SDS011;10761;48.532;8.026;2022-11-25T08:16:16;12.23;;;5.60;;
21206;SDS011;10761;48.532;8.026;2022-11-25T08:18:42;8.25;;;3.70;;
21206;SDS011;10761;48.532;8.026;2022-11-25T08:21:09;7.35;;;4.28;;
21206;SDS011;10761;48.532;8.026;2022-11-25T08:23:36;6.45;;;3.55;;
21206;SDS011;10761;48.532;8.026;2022-11-25T08:26:03;7.15;;;2.80;;
21206;SDS011;10761;48.532;8.026;2022-11-25T08:28:33;7.38;;;2.55;;
21206;SDS011;10761;48.532;8.026;2022-11-25T08:31:00;6.65;;;1.75;;
21206;SDS011;10761;48.532;8.026;2022-11-25T08:33:27;8.60;;;1.88;;
21206;SDS011;10761;48.532;8.026;2022-11-25T08:35:53;7.97;;;1.40;;
21206;SDS011;10761;48.532;8.026;2022-11-25T08:38:19;6.70;;;1.60;;
21206;SDS011;10761;48.532;8.026;2022-11-25T08:40:45;6.50;;;1.60;;
21206;SDS011;10761;48.532;8.026;2022-11-25T08:43:10;6.40;;;1.83;;
21206;SDS011;10761;48.532;8.026;2022-11-25T08:45:37;8.98;;;2.40;;
21206;SDS011;10761;48.532;8.026;2022-11-25T08:48:04;5.90;;;1.73;;
21206;SDS011;10761;48.532;8.026;2022-11-25T08:50:30;7.72;;;2.58;;
21206;SDS011;10761;48.532;8.026;2022-11-25T08:52:56;8.68;;;2.67;;
21206;SDS011;10761;48.532;8.026;2022-11-25T08:55:22;8.10;;;3.00;;
21206;SDS011;10761;48.532;8.026;2022-11-25T08:57:50;7.63;;;2.65;;
21206;SDS011;10761;48.532;8.026;2022-11-25T09:00:16;7.38;;;2.63;;
21206;SDS011;10761;48.532;8.026;2022-11-25T09:02:42;11.35;;;3.72;;
21206;SDS011;10761;48.532;8.026;2022-11-25T09:05:10;9.88;;;3.95;;
21206;SDS011;10761;48.532;8.026;2022-11-25T09:07:37;10.68;;;3.85;;
21206;SDS011;10761;48.532;8.026;2022-11-25T09:10:03;9.65;;;3.90;;
21206;SDS011;10761;48.532;8.026;2022-11-25T09:12:30;8.93;;;3.65;;
21206;SDS011;10761;48.532;8.026;2022-11-25T09:14:55;10.20;;;3.58;;
21206;SDS011;10761;48.532;8.026;2022-11-25T09:17:21;13.82;;;3.67;;
21206;SDS011;10761;48.532;8.026;2022-11-25T09:19:47;9.23;;;3.83;;
21206;SDS011;10761;48.532;8.026;2022-11-25T09:22:12;7.53;;;2.78;;
21206;SDS011;10761;48.532;8.026;2022-11-25T09:24:38;9.98;;;3.15;;
21206;SDS011;10761;48.532;8.026;2022-11-25T09:27:05;7.47;;;2.95;;
21206;SDS011;10761;48.532;8.026;2022-11-25T09:29:31;9.07;;;3.35;;
21206;SDS011;10761;48.532;8.026;2022-11-25T09:31:57;9.35;;;3.08;;
21206;SDS011;10761;48.532;8.026;2022-11-25T09:34:22;9.20;;;2.72;;
21206;SDS011;10761;48.532;8.026;2022-11-25T09:36:48;8.60;;;3.30;;
21206;SDS011;10761;48.532;8.026;2022-11-25T09:39:14;7.43;;;2.65;;
21206;SDS011;10761;48.532;8.026;2022-11-25T09:45:02;8.90;;;3.53;;
21206;SDS011;10761;48.532;8.026;2022-11-25T09:50:58;4.05;;;2.33;;
21206;SDS011;10761;48.532;8.026;2022-11-25T09:56:22;3.97;;;2.00;;
21206;SDS011;10761;48.532;8.026;2022-11-25T09:59:18;10.73;;;2.30;;
21206;SDS011;10761;48.532;8.026;2022-11-25T10:01:56;7.20;;;2.90;;
21206;SDS011;10761;48.532;8.026;2022-11-25T10:04:29;5.68;;;2.30;;
21206;SDS011;10761;48.532;8.026;2022-11-25T10:07:00;6.70;;;2.35;;
21206;SDS011;10761;48.532;8.026;2022-11-25T10:09:29;6.38;;;2.40;;
21206;SDS011;10761;48.532;8.026;2022-11-25T10:12:05;11.63;;;3.65;;
21206;SDS011;10761;48.532;8.026;2022-11-25T10:14:43;5.85;;;2.75;;
21206;SDS011;10761;48.532;8.026;2022-11-25T10:19:51;6.57;;;2.90;;
21206;SDS011;10761;48.532;8.026;2022-11-25T10:22:34;7.63;;;3.05;;
21206;SDS011;10761;48.532;8.026;2022-11-25T10:25:11;10.40;;;5.53;;
21206;SDS011;10761;48.532;8.026;2022-11-25T10:28:09;10.02;;;5.25;;
21206;SDS011;10761;48.532;8.026;2022-11-25T10:30:43;22.90;;;14.63;;
21206;SDS011;10761;48.532;8.026;2022-11-25T10:33:38;17.92;;;11.05;;
21206;SDS011;10761;48.532;8.026;2022-11-25T10:38:50;11.23;;;4.63;;
21206;SDS011;10761;48.532;8.026;2022-11-25T10:41:20;16.02;;;8.15;;
21206;SDS011;10761;48.532;8.026;2022-11-25T10:43:52;8.00;;;4.35;;
21206;SDS011;10761;48.532;8.026;2022-11-25T10:46:32;8.20;;;3.35;;
21206;SDS011;10761;48.532;8.026;2022-11-25T10:51:57;15.25;;;7.63;;
21206;SDS011;10761;48.532;8.026;2022-11-25T10:54:24;13.68;;;7.28;;
21206;SDS011;10761;48.532;8.026;2022-11-25T10:56:52;12.25;;;5.80;;
21206;SDS011;10761;48.532;8.026;2022-11-25T10:59:37;11.98;;;6.13;;
21206;SDS011;10761;48.532;8.026;2022-11-25T11:07:22;8.73;;;3.70;;
21206;SDS011;10761;48.532;8.026;2022-11-25T11:09:50;7.47;;;3.60;;
21206;SDS011;10761;48.532;8.026;2022-11-25T11:14:52;5.85;;;2.50;;
21206;SDS011;10761;48.532;8.026;2022-11-25T11:17:38;8.35;;;2.40;;
21206;SDS011;10761;48.532;8.026;2022-11-25T11:22:36;5.70;;;2.60;;
21206;SDS011;10761;48.532;8.026;2022-11-25T11:27:47;5.72;;;2.58;;
21206;SDS011;10761;48.532;8.026;2022-11-25T11:32:58;7.32;;;2.10;;
21206;SDS011;10761;48.532;8.026;2022-11-25T11:38:31;7.07;;;2.58;;
21206;SDS011;10761;48.532;8.026;2022-11-25T11:41:24;7.07;;;2.10;;
21206;SDS011;10761;48.532;8.026;2022-11-25T11:50:31;6.97;;;2.22;;
21206;SDS011;10761;48.532;8.026;2022-11-25T11:58:28;7.22;;;2.40;;
21206;SDS011;10761;48.532;8.026;2022-11-25T12:01:24;4.88;;;2.45;;
21206;SDS011;10761;48.532;8.026;2022-11-25T12:04:35;5.82;;;2.38;;
21206;SDS011;10761;48.532;8.026;2022-11-25T12:10:00;5.78;;;1.95;;
21206;SDS011;10761;48.532;8.026;2022-11-25T12:12:37;4.35;;;2.05;;
21206;SDS011;10761;48.532;8.026;2022-11-25T12:15:21;6.50;;;2.38;;
21206;SDS011;10761;48.532;8.026;2022-11-25T12:24:00;6.90;;;2.63;;
21206;SDS011;10761;48.532;8.026;2022-11-25T12:29:27;5.97;;;2.60;;
21206;SDS011;10761;48.532;8.026;2022-11-25T12:37:37;9.07;;;2.80;;
21206;SDS011;10761;48.532;8.026;2022-11-25T12:40:30;6.35;;;2.78;;
21206;SDS011;10761;48.532;8.026;2022-11-25T12:43:03;8.77;;;3.53;;
21206;SDS011;10761;48.532;8.026;2022-11-25T12:45:50;7.82;;;2.78;;
21206;SDS011;10761;48.532;8.026;2022-11-25T12:48:25;6.72;;;3.15;;
21206;SDS011;10761;48.532;8.026;2022-11-25T12:57:20;8.15;;;3.88;;
21206;SDS011;10761;48.532;8.026;2022-11-25T13:09:07;8.07;;;2.80;;
21206;SDS011;10761;48.532;8.026;2022-11-25T13:14:40;7.38;;;2.85;;
21206;SDS011;10761;48.532;8.026;2022-11-25T13:17:35;9.23;;;2.70;;
21206;SDS011;10761;48.532;8.026;2022-11-25T13:23:42;5.95;;;3.00;;
21206;SDS011;10761;48.532;8.026;2022-11-25T13:25:46;8.35;;;2.70;;
21206;SDS011;10761;48.532;8.026;2022-11-25T13:28:32;5.82;;;2.63;;
21206;SDS011;10761;48.532;8.026;2022-11-25T13:36:20;5.90;;;2.50;;
21206;SDS011;10761;48.532;8.026;2022-11-25T13:46:53;6.43;;;2.40;;
21206;SDS011;10761;48.532;8.026;2022-11-25T13:54:37;4.03;;;2.25;;
21206;SDS011;10761;48.532;8.026;2022-11-25T14:02:27;5.22;;;1.98;;
21206;SDS011;10761;48.532;8.026;2022-11-25T14:04:58;6.90;;;2.50;;
21206;SDS011;10761;48.532;8.026;2022-11-25T14:10:25;5.60;;;2.80;;
21206;SDS011;10761;48.532;8.026;2022-11-25T14:16:03;5.32;;;2.28;;
21206;SDS011;10761;48.532;8.026;2022-11-25T14:24:26;6.80;;;2.20;;
21206;SDS011;10761;48.532;8.026;2022-11-25T14:27:26;4.20;;;2.10;;
21206;SDS011;10761;48.532;8.026;2022-11-25T14:35:21;6.40;;;2.55;;
21206;SDS011;10761;48.532;8.026;2022-11-25T14:38:08;5.80;;;2.60;;
21206;SDS011;10761;48.532;8.026;2022-11-25T14:40:57;8.38;;;2.78;;
21206;SDS011;10761;48.532;8.026;2022-11-25T14:43:29;6.72;;;2.50;;
21206;SDS011;10761;48.532;8.026;2022-11-25T14:46:16;7.00;;;2.85;;
21206;SDS011;10761;48.532;8.026;2022-11-25T14:48:57;4.25;;;2.10;;
21206;SDS011;10761;48.532;8.026;2022-11-25T14:51:25;4.43;;;2.10;;
21206;SDS011;10761;48.532;8.026;2022-11-25T14:53:57;5.05;;;2.33;;
21206;SDS011;10761;48.532;8.026;2022-11-25T14:56:30;6.60;;;2.80;;
21206;SDS011;10761;48.532;8.026;2022-11-25T14:58:58;4.53;;;2.58;;
21206;SDS011;10761;48.532;8.026;2022-11-25T15:01:25;5.35;;;2.58;;
21206;SDS011;10761;48.532;8.026;2022-11-25T15:06:33;6.93;;;3.13;;
21206;SDS011;10761;48.532;8.026;2022-11-25T15:09:00;10.68;;;6.45;;
21206;SDS011;10761;48.532;8.026;2022-11-25T15:11:28;15.80;;;9.07;;
21206;SDS011;10761;48.532;8.026;2022-11-25T15:13:58;18.00;;;8.57;;
21206;SDS011;10761;48.532;8.026;2022-11-25T15:16:32;13.18;;;7.63;;
21206;SDS011;10761;48.532;8.026;2022-11-25T15:19:04;12.82;;;7.97;;
21206;SDS011;10761;48.532;8.026;2022-11-25T15:21:38;13.48;;;9.10;;
21206;SDS011;10761;48.532;8.026;2022-11-25T15:24:16;13.90;;;8.85;;
21206;SDS011;10761;48.532;8.026;2022-11-25T15:26:57;16.45;;;8.77;;
21206;SDS011;10761;48.532;8.026;2022-11-25T15:29:25;11.00;;;7.28;;
21206;SDS011;10761;48.532;8.026;2022-11-25T15:31:53;15.98;;;8.10;;
21206;SDS011;10761;48.532;8.026;2022-11-25T15:34:20;15.23;;;10.30;;
21206;SDS011;10761;48.532;8.026;2022-11-25T15:36:47;9.85;;;4.40;;
21206;SDS011;10761;48.532;8.026;2022-11-25T15:39:14;11.65;;;5.03;;
21206;SDS011;10761;48.532;8.026;2022-11-25T15:41:42;9.35;;;4.18;;
21206;SDS011;10761;48.532;8.026;2022-11-25T15:44:16;9.45;;;4.70;;
21206;SDS011;10761;48.532;8.026;2022-11-25T15:46:48;9.98;;;4.30;;
21206;SDS011;10761;48.532;8.026;2022-11-25T15:49:20;8.18;;;4.70;;
21206;SDS011;10761;48.532;8.026;2022-11-25T15:54:18;11.65;;;5.30;;
21206;SDS011;10761;48.532;8.026;2022-11-25T15:56:52;13.38;;;6.25;;
21206;SDS011;10761;48.532;8.026;2022-11-25T16:10:56;13.98;;;6.45;;
21206;SDS011;10761;48.532;8.026;2022-11-25T16:15:44;13.10;;;7.93;;
21206;SDS011;10761;48.532;8.026;2022-11-25T16:18:19;18.30;;;7.40;;
21206;SDS011;10761;48.532;8.026;2022-11-25T16:20:53;14.38;;;6.50;;
21206;SDS011;10761;48.532;8.026;2022-11-25T16:23:21;20.58;;;8.27;;
21206;SDS011;10761;48.532;8.026;2022-11-25T16:25:57;12.10;;;4.90;;
21206;SDS011;10761;48.532;8.026;2022-11-25T16:28:26;14.60;;;5.40;;
21206;SDS011;10761;48.532;8.026;2022-11-25T16:30:52;12.60;;;4.50;;
21206;SDS011;10761;48.532;8.026;2022-11-25T16:33:21;22.58;;;11.68;;
21206;SDS011;10761;48.532;8.026;2022-11-25T16:35:49;18.13;;;10.40;;
21206;SDS011;10761;48.532;8.026;2022-11-25T16:38:14;19.10;;;9.93;;
21206;SDS011;10761;48.532;8.026;2022-11-25T16:40:40;13.45;;;5.68;;
21206;SDS011;10761;48.532;8.026;2022-11-25T16:43:08;14.30;;;5.90;;
21206;SDS011;10761;48.532;8.026;2022-11-25T16:45:47;13.63;;;5.05;;
21206;SDS011;10761;48.532;8.026;2022-11-25T16:48:15;17.65;;;5.53;;
21206;SDS011;10761;48.532;8.026;2022-11-25T16:50:42;20.35;;;7.95;;
21206;SDS011;10761;48.532;8.026;2022-11-25T16:53:08;22.77;;;10.10;;
21206;SDS011;10761;48.532;8.026;2022-11-25T16:55:34;11.45;;;5.15;;
21206;SDS011;10761;48.532;8.026;2022-11-25T16:58:01;12.80;;;3.92;;
21206;SDS011;10761;48.532;8.026;2022-11-25T17:00:31;9.73;;;3.70;;
21206;SDS011;10761;48.532;8.026;2022-11-25T17:02:57;13.75;;;4.22;;
21206;SDS011;10761;48.532;8.026;2022-11-25T17:05:23;8.27;;;3.08;;
21206;SDS011;10761;48.532;8.026;2022-11-25T17:07:49;13.38;;;3.58;;
21206;SDS011;10761;48.532;8.026;2022-11-25T17:10:15;9.48;;;2.60;;
21206;SDS011;10761;48.532;8.026;2022-11-25T17:12:42;10.25;;;3.60;;
21206;SDS011;10761;48.532;8.026;2022-11-25T17:15:13;12.63;;;3.35;;
21206;SDS011;10761;48.532;8.026;2022-11-25T17:17:42;9.88;;;2.65;;
21206;SDS011;10761;48.532;8.026;2022-11-25T17:20:18;8.93;;;2.83;;
21206;SDS011;10761;48.532;8.026;2022-11-25T17:22:48;9.02;;;2.60;;
21206;SDS011;10761;48.532;8.026;2022-11-25T17:25:17;8.68;;;2.78;;
21206;SDS011;10761;48.532;8.026;2022-11-25T17:27:45;8.98;;;2.83;;
21206;SDS011;10761;48.532;8.026;2022-11-25T17:30:25;15.23;;;6.22;;
21206;SDS011;10761;48.532;8.026;2022-11-25T17:33:02;8.70;;;2.55;;
21206;SDS011;10761;48.532;8.026;2022-11-25T17:35:30;7.88;;;2.78;;